sensor_id;sensor_type;location;lat;lon;timestamp;temperature;humidity
19180;DHT22;9722;48.754;8.868;2023-07-02T00:00:45;17.20;98.10
19180;DHT22;9722;48.754;8.868;2023-07-02T00:04:06;17.00;98.20
19180;DHT22;9722;48.754;8.868;2023-07-02T00:07:30;16.90;98.80
19180;DHT22;9722;48.754;8.868;2023-07-02T00:10:51;16.80;98.60
19180;DHT22;9722;48.754;8.868;2023-07-02T00:14:12;16.80;98.80
19180;DHT22;9722;48.754;8.868;2023-07-02T00:17:34;16.70;98.80
19180;DHT22;9722;48.754;8.868;2023-07-02T00:20:54;16.80;98.80
19180;DHT22;9722;48.754;8.868;2023-07-02T00:24:15;16.80;98.70
19180;DHT22;9722;48.754;8.868;2023-07-02T00:27:36;16.90;98.60
19180;DHT22;9722;48.754;8.868;2023-07-02T00:30:57;16.90;98.50
19180;DHT22;9722;48.754;8.868;2023-07-02T00:34:18;16.90;98.30
19180;DHT22;9722;48.754;8.868;2023-07-02T00:37:39;16.90;98.30
19180;DHT22;9722;48.754;8.868;2023-07-02T00:40:59;16.80;98.30
19180;DHT22;9722;48.754;8.868;2023-07-02T00:44:20;16.70;98.30
19180;DHT22;9722;48.754;8.868;2023-07-02T00:47:40;16.60;98.30
19180;DHT22;9722;48.754;8.868;2023-07-02T00:51:01;16.60;98.50
19180;DHT22;9722;48.754;8.868;2023-07-02T00:54:22;16.60;98.50
19180;DHT22;9722;48.754;8.868;2023-07-02T00:57:42;16.60;98.40
19180;DHT22;9722;48.754;8.868;2023-07-02T01:01:06;16.70;98.30
19180;DHT22;9722;48.754;8.868;2023-07-02T01:04:27;16.70;98.40
19180;DHT22;9722;48.754;8.868;2023-07-02T01:07:48;16.60;98.70
19180;DHT22;9722;48.754;8.868;2023-07-02T01:11:09;16.40;98.90
19180;DHT22;9722;48.754;8.868;2023-07-02T01:14:41;16.20;99.30
19180;DHT22;9722;48.754;8.868;2023-07-02T01:18:05;16.10;99.60
19180;DHT22;9722;48.754;8.868;2023-07-02T01:21:26;16.00;99.90
19180;DHT22;9722;48.754;8.868;2023-07-02T01:24:47;15.90;99.90
19180;DHT22;9722;48.754;8.868;2023-07-02T01:28:08;15.90;99.90
19180;DHT22;9722;48.754;8.868;2023-07-02T01:31:29;15.70;99.90
19180;DHT22;9722;48.754;8.868;2023-07-02T01:34:49;15.70;99.90
19180;DHT22;9722;48.754;8.868;2023-07-02T01:38:10;15.70;99.90
19180;DHT22;9722;48.754;8.868;2023-07-02T01:41:36;15.70;99.90
19180;DHT22;9722;48.754;8.868;2023-07-02T01:44:57;15.70;99.90
19180;DHT22;9722;48.754;8.868;2023-07-02T01:48:17;15.70;99.90
19180;DHT22;9722;48.754;8.868;2023-07-02T01:51:38;15.70;99.90
19180;DHT22;9722;48.754;8.868;2023-07-02T01:55:00;15.80;99.90
19180;DHT22;9722;48.754;8.868;2023-07-02T01:58:21;15.80;99.90
19180;DHT22;9722;48.754;8.868;2023-07-02T02:01:42;15.90;99.90
19180;DHT22;9722;48.754;8.868;2023-07-02T02:05:03;16.00;99.90
19180;DHT22;9722;48.754;8.868;2023-07-02T02:08:24;16.10;99.90
19180;DHT22;9722;48.754;8.868;2023-07-02T02:11:47;16.20;99.90
19180;DHT22;9722;48.754;8.868;2023-07-02T02:15:08;16.30;99.60
19180;DHT22;9722;48.754;8.868;2023-07-02T02:18:29;16.40;99.30
19180;DHT22;9722;48.754;8.868;2023-07-02T02:21:49;16.50;99.10
19180;DHT22;9722;48.754;8.868;2023-07-02T02:25:10;16.50;98.90
19180;DHT22;9722;48.754;8.868;2023-07-02T02:28:30;16.60;98.80
19180;DHT22;9722;48.754;8.868;2023-07-02T02:31:51;16.60;98.50
19180;DHT22;9722;48.754;8.868;2023-07-02T02:35:11;16.70;98.40
19180;DHT22;9722;48.754;8.868;2023-07-02T02:38:32;16.70;98.20
19180;DHT22;9722;48.754;8.868;2023-07-02T02:41:54;16.70;98.10
19180;DHT22;9722;48.754;8.868;2023-07-02T02:45:14;16.80;97.80
19180;DHT22;9722;48.754;8.868;2023-07-02T02:48:35;16.80;97.50
19180;DHT22;9722;48.754;8.868;2023-07-02T02:51:55;16.90;97.30
19180;DHT22;9722;48.754;8.868;2023-07-02T02:55:16;16.90;97.20
19180;DHT22;9722;48.754;8.868;2023-07-02T02:58:36;16.90;97.30
19180;DHT22;9722;48.754;8.868;2023-07-02T03:01:57;16.80;97.50
19180;DHT22;9722;48.754;8.868;2023-07-02T03:05:17;16.80;97.80
19180;DHT22;9722;48.754;8.868;2023-07-02T03:08:39;16.80;98.20
19180;DHT22;9722;48.754;8.868;2023-07-02T03:11:59;16.80;98.50
19180;DHT22;9722;48.754;8.868;2023-07-02T03:15:20;16.80;98.90
19180;DHT22;9722;48.754;8.868;2023-07-02T03:18:40;16.70;99.00
19180;DHT22;9722;48.754;8.868;2023-07-02T03:22:01;16.70;99.10
19180;DHT22;9722;48.754;8.868;2023-07-02T03:25:22;16.70;99.20
19180;DHT22;9722;48.754;8.868;2023-07-02T03:28:42;16.60;99.20
19180;DHT22;9722;48.754;8.868;2023-07-02T03:32:03;16.50;99.30
19180;DHT22;9722;48.754;8.868;2023-07-02T03:35:24;16.50;99.10
19180;DHT22;9722;48.754;8.868;2023-07-02T03:38:44;16.50;99.30
19180;DHT22;9722;48.754;8.868;2023-07-02T03:42:05;16.40;99.00
19180;DHT22;9722;48.754;8.868;2023-07-02T03:45:26;16.40;99.10
19180;DHT22;9722;48.754;8.868;2023-07-02T03:48:46;16.40;99.20
19180;DHT22;9722;48.754;8.868;2023-07-02T03:52:07;16.30;99.30
19180;DHT22;9722;48.754;8.868;2023-07-02T03:55:28;16.30;99.50
19180;DHT22;9722;48.754;8.868;2023-07-02T03:58:48;16.30;99.60
19180;DHT22;9722;48.754;8.868;2023-07-02T04:02:09;16.40;99.70
19180;DHT22;9722;48.754;8.868;2023-07-02T04:05:29;16.40;99.60
19180;DHT22;9722;48.754;8.868;2023-07-02T04:08:50;16.40;99.70
19180;DHT22;9722;48.754;8.868;2023-07-02T04:12:10;16.40;99.40
19180;DHT22;9722;48.754;8.868;2023-07-02T04:15:31;16.40;99.20
19180;DHT22;9722;48.754;8.868;2023-07-02T04:18:52;16.30;99.20
19180;DHT22;9722;48.754;8.868;2023-07-02T04:22:12;16.30;99.20
19180;DHT22;9722;48.754;8.868;2023-07-02T04:25:33;16.20;99.10
19180;DHT22;9722;48.754;8.868;2023-07-02T04:28:54;16.10;99.20
19180;DHT22;9722;48.754;8.868;2023-07-02T04:32:15;16.00;99.30
19180;DHT22;9722;48.754;8.868;2023-07-02T04:35:36;16.00;99.40
19180;DHT22;9722;48.754;8.868;2023-07-02T04:38:57;16.00;99.30
19180;DHT22;9722;48.754;8.868;2023-07-02T04:42:17;16.20;99.20
19180;DHT22;9722;48.754;8.868;2023-07-02T04:45:38;16.30;98.80
19180;DHT22;9722;48.754;8.868;2023-07-02T04:48:59;16.50;98.60
19180;DHT22;9722;48.754;8.868;2023-07-02T04:52:20;16.50;98.30
19180;DHT22;9722;48.754;8.868;2023-07-02T04:55:41;16.50;98.10
19180;DHT22;9722;48.754;8.868;2023-07-02T04:59:02;16.50;97.80
19180;DHT22;9722;48.754;8.868;2023-07-02T05:02:22;16.50;97.90
19180;DHT22;9722;48.754;8.868;2023-07-02T05:05:43;16.50;98.00
19180;DHT22;9722;48.754;8.868;2023-07-02T05:09:03;16.50;97.80
19180;DHT22;9722;48.754;8.868;2023-07-02T05:12:24;16.60;97.70
19180;DHT22;9722;48.754;8.868;2023-07-02T05:15:45;16.60;97.50
19180;DHT22;9722;48.754;8.868;2023-07-02T05:19:05;16.70;97.40
19180;DHT22;9722;48.754;8.868;2023-07-02T05:22:26;16.80;97.10
19180;DHT22;9722;48.754;8.868;2023-07-02T05:25:46;16.90;96.90
19180;DHT22;9722;48.754;8.868;2023-07-02T05:29:07;16.90;96.60
19180;DHT22;9722;48.754;8.868;2023-07-02T05:32:28;17.00;96.00
19180;DHT22;9722;48.754;8.868;2023-07-02T05:35:48;17.10;95.80
19180;DHT22;9722;48.754;8.868;2023-07-02T05:39:09;17.20;95.80
19180;DHT22;9722;48.754;8.868;2023-07-02T05:42:29;17.30;95.30
19180;DHT22;9722;48.754;8.868;2023-07-02T05:45:51;17.50;94.90
19180;DHT22;9722;48.754;8.868;2023-07-02T05:49:12;17.60;94.40
19180;DHT22;9722;48.754;8.868;2023-07-02T05:52:33;17.80;93.70
19180;DHT22;9722;48.754;8.868;2023-07-02T05:55:53;17.90;93.40
19180;DHT22;9722;48.754;8.868;2023-07-02T05:59:14;18.20;92.60
19180;DHT22;9722;48.754;8.868;2023-07-02T06:02:38;18.60;91.80
19180;DHT22;9722;48.754;8.868;2023-07-02T06:05:58;19.00;91.40
19180;DHT22;9722;48.754;8.868;2023-07-02T06:09:19;19.40;90.10
19180;DHT22;9722;48.754;8.868;2023-07-02T06:12:39;19.80;88.40
19180;DHT22;9722;48.754;8.868;2023-07-02T06:16:00;20.10;87.10
19180;DHT22;9722;48.754;8.868;2023-07-02T06:19:20;20.10;84.70
19180;DHT22;9722;48.754;8.868;2023-07-02T06:22:41;20.20;83.90
19180;DHT22;9722;48.754;8.868;2023-07-02T06:26:02;20.10;83.40
19180;DHT22;9722;48.754;8.868;2023-07-02T06:29:23;20.20;82.60
19180;DHT22;9722;48.754;8.868;2023-07-02T06:32:44;20.50;81.90
19180;DHT22;9722;48.754;8.868;2023-07-02T06:36:05;21.00;79.90
19180;DHT22;9722;48.754;8.868;2023-07-02T06:39:25;21.50;78.00
19180;DHT22;9722;48.754;8.868;2023-07-02T06:42:46;21.90;75.60
19180;DHT22;9722;48.754;8.868;2023-07-02T06:46:06;22.30;72.90
19180;DHT22;9722;48.754;8.868;2023-07-02T06:49:27;22.70;70.20
19180;DHT22;9722;48.754;8.868;2023-07-02T06:52:47;22.90;68.60
19180;DHT22;9722;48.754;8.868;2023-07-02T06:56:08;23.30;66.50
19180;DHT22;9722;48.754;8.868;2023-07-02T06:59:29;23.60;65.60
19180;DHT22;9722;48.754;8.868;2023-07-02T07:02:50;24.00;63.70
19180;DHT22;9722;48.754;8.868;2023-07-02T07:06:11;24.30;61.30
19180;DHT22;9722;48.754;8.868;2023-07-02T07:09:31;24.40;59.80
19180;DHT22;9722;48.754;8.868;2023-07-02T07:12:52;24.50;59.70
19180;DHT22;9722;48.754;8.868;2023-07-02T07:16:12;24.70;59.10
19180;DHT22;9722;48.754;8.868;2023-07-02T07:19:33;25.00;58.00
19180;DHT22;9722;48.754;8.868;2023-07-02T07:22:54;24.80;57.80
19180;DHT22;9722;48.754;8.868;2023-07-02T07:26:14;25.00;57.40
19180;DHT22;9722;48.754;8.868;2023-07-02T07:29:35;25.40;56.20
19180;DHT22;9722;48.754;8.868;2023-07-02T07:32:56;25.60;55.40
19180;DHT22;9722;48.754;8.868;2023-07-02T07:36:16;25.70;55.20
19180;DHT22;9722;48.754;8.868;2023-07-02T07:39:37;25.90;54.80
19180;DHT22;9722;48.754;8.868;2023-07-02T07:42:58;26.10;53.80
19180;DHT22;9722;48.754;8.868;2023-07-02T07:46:18;26.10;53.60
19180;DHT22;9722;48.754;8.868;2023-07-02T07:49:39;26.30;52.90
19180;DHT22;9722;48.754;8.868;2023-07-02T07:53:00;26.20;52.60
19180;DHT22;9722;48.754;8.868;2023-07-02T07:56:20;26.20;52.10
19180;DHT22;9722;48.754;8.868;2023-07-02T07:59:41;26.20;52.30
19180;DHT22;9722;48.754;8.868;2023-07-02T08:03:01;26.10;52.20
19180;DHT22;9722;48.754;8.868;2023-07-02T08:06:23;26.00;51.90
19180;DHT22;9722;48.754;8.868;2023-07-02T08:09:44;26.20;52.20
19180;DHT22;9722;48.754;8.868;2023-07-02T08:13:04;26.50;51.60
19180;DHT22;9722;48.754;8.868;2023-07-02T08:16:25;26.60;51.20
19180;DHT22;9722;48.754;8.868;2023-07-02T08:19:45;26.90;50.50
19180;DHT22;9722;48.754;8.868;2023-07-02T08:23:06;27.50;49.50
19180;DHT22;9722;48.754;8.868;2023-07-02T08:26:26;27.90;48.20
19180;DHT22;9722;48.754;8.868;2023-07-02T08:29:47;28.20;47.60
19180;DHT22;9722;48.754;8.868;2023-07-02T08:33:07;28.40;46.80
19180;DHT22;9722;48.754;8.868;2023-07-02T08:36:28;28.60;46.00
19180;DHT22;9722;48.754;8.868;2023-07-02T08:39:49;28.70;45.70
19180;DHT22;9722;48.754;8.868;2023-07-02T08:43:10;28.80;45.70
19180;DHT22;9722;48.754;8.868;2023-07-02T08:46:30;29.00;45.70
19180;DHT22;9722;48.754;8.868;2023-07-02T08:49:51;29.40;44.80
19180;DHT22;9722;48.754;8.868;2023-07-02T08:53:12;29.50;44.00
19180;DHT22;9722;48.754;8.868;2023-07-02T08:56:32;29.70;43.60
19180;DHT22;9722;48.754;8.868;2023-07-02T08:59:53;30.20;43.40
19180;DHT22;9722;48.754;8.868;2023-07-02T09:03:14;30.60;42.50
19180;DHT22;9722;48.754;8.868;2023-07-02T09:06:37;30.80;41.70
19180;DHT22;9722;48.754;8.868;2023-07-02T09:09:58;30.80;41.70
19180;DHT22;9722;48.754;8.868;2023-07-02T09:13:19;31.00;41.00
19180;DHT22;9722;48.754;8.868;2023-07-02T09:16:39;31.20;41.70
19180;DHT22;9722;48.754;8.868;2023-07-02T09:20:03;31.60;40.70
19180;DHT22;9722;48.754;8.868;2023-07-02T09:23:36;32.00;40.60
19180;DHT22;9722;48.754;8.868;2023-07-02T09:26:58;32.50;39.50
19180;DHT22;9722;48.754;8.868;2023-07-02T09:30:19;32.70;38.70
19180;DHT22;9722;48.754;8.868;2023-07-02T09:33:39;32.70;38.00
19180;DHT22;9722;48.754;8.868;2023-07-02T09:37:01;32.60;37.90
19180;DHT22;9722;48.754;8.868;2023-07-02T09:40:22;32.20;37.80
19180;DHT22;9722;48.754;8.868;2023-07-02T09:43:45;32.10;38.50
19180;DHT22;9722;48.754;8.868;2023-07-02T09:47:07;32.20;37.70
19180;DHT22;9722;48.754;8.868;2023-07-02T09:50:28;31.70;38.00
19180;DHT22;9722;48.754;8.868;2023-07-02T09:53:50;31.70;39.30
19180;DHT22;9722;48.754;8.868;2023-07-02T09:57:11;31.70;38.50
19180;DHT22;9722;48.754;8.868;2023-07-02T10:00:32;31.90;38.40
19180;DHT22;9722;48.754;8.868;2023-07-02T10:03:52;32.00;38.40
19180;DHT22;9722;48.754;8.868;2023-07-02T10:07:26;32.60;38.60
19180;DHT22;9722;48.754;8.868;2023-07-02T10:10:47;33.10;38.30
19180;DHT22;9722;48.754;8.868;2023-07-02T10:14:07;33.00;38.50
19180;DHT22;9722;48.754;8.868;2023-07-02T10:17:32;32.70;38.20
19180;DHT22;9722;48.754;8.868;2023-07-02T10:20:53;32.40;39.10
19180;DHT22;9722;48.754;8.868;2023-07-02T10:24:15;32.80;38.10
19180;DHT22;9722;48.754;8.868;2023-07-02T10:27:41;33.60;37.20
19180;DHT22;9722;48.754;8.868;2023-07-02T10:31:01;34.20;34.40
19180;DHT22;9722;48.754;8.868;2023-07-02T10:34:29;33.40;35.00
19180;DHT22;9722;48.754;8.868;2023-07-02T10:37:50;32.60;35.80
19180;DHT22;9722;48.754;8.868;2023-07-02T10:41:10;32.10;37.00
19180;DHT22;9722;48.754;8.868;2023-07-02T10:44:31;32.10;37.20
19180;DHT22;9722;48.754;8.868;2023-07-02T10:47:52;32.50;37.20
19180;DHT22;9722;48.754;8.868;2023-07-02T10:51:12;33.30;36.00
19180;DHT22;9722;48.754;8.868;2023-07-02T10:54:46;33.50;35.00
19180;DHT22;9722;48.754;8.868;2023-07-02T10:58:08;33.10;35.20
19180;DHT22;9722;48.754;8.868;2023-07-02T11:01:31;32.50;36.50
19180;DHT22;9722;48.754;8.868;2023-07-02T11:04:52;32.40;36.20
19180;DHT22;9722;48.754;8.868;2023-07-02T11:08:14;32.40;36.50
19180;DHT22;9722;48.754;8.868;2023-07-02T11:11:34;32.50;36.30
19180;DHT22;9722;48.754;8.868;2023-07-02T11:14:55;33.30;35.60
19180;DHT22;9722;48.754;8.868;2023-07-02T11:18:17;33.50;34.00
19180;DHT22;9722;48.754;8.868;2023-07-02T11:21:37;33.80;33.70
19180;DHT22;9722;48.754;8.868;2023-07-02T11:25:12;34.70;33.60
19180;DHT22;9722;48.754;8.868;2023-07-02T11:28:32;35.80;32.60
19180;DHT22;9722;48.754;8.868;2023-07-02T11:32:03;36.60;31.90
19180;DHT22;9722;48.754;8.868;2023-07-02T11:35:34;37.00;30.90
19180;DHT22;9722;48.754;8.868;2023-07-02T11:38:55;37.40;30.50
19180;DHT22;9722;48.754;8.868;2023-07-02T11:42:16;38.00;30.00
19180;DHT22;9722;48.754;8.868;2023-07-02T11:45:36;38.70;29.10
19180;DHT22;9722;48.754;8.868;2023-07-02T11:48:57;38.90;28.60
19180;DHT22;9722;48.754;8.868;2023-07-02T11:52:17;39.20;28.40
19180;DHT22;9722;48.754;8.868;2023-07-02T11:55:38;39.50;28.50
19180;DHT22;9722;48.754;8.868;2023-07-02T11:58:59;39.60;27.60
19180;DHT22;9722;48.754;8.868;2023-07-02T12:02:19;39.50;27.20
19180;DHT22;9722;48.754;8.868;2023-07-02T12:05:40;39.40;27.20
19180;DHT22;9722;48.754;8.868;2023-07-02T12:09:00;39.60;27.30
19180;DHT22;9722;48.754;8.868;2023-07-02T12:12:21;40.00;27.10
19180;DHT22;9722;48.754;8.868;2023-07-02T12:15:42;40.50;26.80
19180;DHT22;9722;48.754;8.868;2023-07-02T12:19:02;40.60;26.40
19180;DHT22;9722;48.754;8.868;2023-07-02T12:22:23;40.70;26.70
19180;DHT22;9722;48.754;8.868;2023-07-02T12:25:43;40.80;26.40
19180;DHT22;9722;48.754;8.868;2023-07-02T12:29:04;40.90;26.10
19180;DHT22;9722;48.754;8.868;2023-07-02T12:32:24;40.60;25.90
19180;DHT22;9722;48.754;8.868;2023-07-02T12:35:45;40.50;25.90
19180;DHT22;9722;48.754;8.868;2023-07-02T12:39:05;40.40;25.70
19180;DHT22;9722;48.754;8.868;2023-07-02T12:42:26;40.20;25.90
19180;DHT22;9722;48.754;8.868;2023-07-02T12:45:47;40.50;26.40
19180;DHT22;9722;48.754;8.868;2023-07-02T12:49:07;40.80;25.80
19180;DHT22;9722;48.754;8.868;2023-07-02T12:52:29;40.90;25.50
19180;DHT22;9722;48.754;8.868;2023-07-02T12:55:49;40.90;25.80
19180;DHT22;9722;48.754;8.868;2023-07-02T12:59:10;40.90;25.80
19180;DHT22;9722;48.754;8.868;2023-07-02T13:02:30;40.80;25.50
19180;DHT22;9722;48.754;8.868;2023-07-02T13:05:51;40.40;25.50
19180;DHT22;9722;48.754;8.868;2023-07-02T13:09:12;40.10;25.80
19180;DHT22;9722;48.754;8.868;2023-07-02T13:12:32;39.90;25.80
19180;DHT22;9722;48.754;8.868;2023-07-02T13:15:53;39.60;26.50
19180;DHT22;9722;48.754;8.868;2023-07-02T13:19:13;39.60;26.80
19180;DHT22;9722;48.754;8.868;2023-07-02T13:22:35;39.70;26.90
19180;DHT22;9722;48.754;8.868;2023-07-02T13:25:57;39.70;26.90
19180;DHT22;9722;48.754;8.868;2023-07-02T13:29:18;39.20;26.40
19180;DHT22;9722;48.754;8.868;2023-07-02T13:32:38;38.20;26.90
19180;DHT22;9722;48.754;8.868;2023-07-02T13:35:59;36.90;27.60
19180;DHT22;9722;48.754;8.868;2023-07-02T13:39:19;35.40;28.30
19180;DHT22;9722;48.754;8.868;2023-07-02T13:42:40;34.20;28.90
19180;DHT22;9722;48.754;8.868;2023-07-02T13:46:03;32.90;30.00
19180;DHT22;9722;48.754;8.868;2023-07-02T13:49:23;31.80;31.30
19180;DHT22;9722;48.754;8.868;2023-07-02T13:52:44;31.10;31.70
19180;DHT22;9722;48.754;8.868;2023-07-02T13:56:06;30.70;32.70
19180;DHT22;9722;48.754;8.868;2023-07-02T13:59:27;30.50;33.20
19180;DHT22;9722;48.754;8.868;2023-07-02T14:02:47;30.40;33.80
19180;DHT22;9722;48.754;8.868;2023-07-02T14:06:08;30.10;34.30
19180;DHT22;9722;48.754;8.868;2023-07-02T14:09:29;30.00;34.60
19180;DHT22;9722;48.754;8.868;2023-07-02T14:12:50;29.80;34.30
19180;DHT22;9722;48.754;8.868;2023-07-02T14:16:10;29.40;34.90
19180;DHT22;9722;48.754;8.868;2023-07-02T14:19:31;29.10;35.60
19180;DHT22;9722;48.754;8.868;2023-07-02T14:22:51;28.90;35.60
19180;DHT22;9722;48.754;8.868;2023-07-02T14:26:12;28.70;35.90
19180;DHT22;9722;48.754;8.868;2023-07-02T14:29:32;28.60;36.20
19180;DHT22;9722;48.754;8.868;2023-07-02T14:32:53;28.60;36.80
19180;DHT22;9722;48.754;8.868;2023-07-02T14:36:13;28.50;36.70
19180;DHT22;9722;48.754;8.868;2023-07-02T14:39:34;28.40;36.90
19180;DHT22;9722;48.754;8.868;2023-07-02T14:42:55;28.30;37.10
19180;DHT22;9722;48.754;8.868;2023-07-02T14:46:15;28.30;37.20
19180;DHT22;9722;48.754;8.868;2023-07-02T14:49:37;28.30;37.40
19180;DHT22;9722;48.754;8.868;2023-07-02T14:52:57;28.20;37.80
19180;DHT22;9722;48.754;8.868;2023-07-02T14:56:18;28.20;37.80
19180;DHT22;9722;48.754;8.868;2023-07-02T14:59:38;28.20;37.80
19180;DHT22;9722;48.754;8.868;2023-07-02T15:02:59;28.20;37.90
19180;DHT22;9722;48.754;8.868;2023-07-02T15:06:20;28.10;38.00
19180;DHT22;9722;48.754;8.868;2023-07-02T15:09:41;28.00;38.20
19180;DHT22;9722;48.754;8.868;2023-07-02T15:13:01;27.90;38.90
19180;DHT22;9722;48.754;8.868;2023-07-02T15:16:22;28.00;38.60
19180;DHT22;9722;48.754;8.868;2023-07-02T15:19:42;28.00;38.60
19180;DHT22;9722;48.754;8.868;2023-07-02T15:23:03;28.00;38.60
19180;DHT22;9722;48.754;8.868;2023-07-02T15:26:23;27.90;38.60
19180;DHT22;9722;48.754;8.868;2023-07-02T15:29:45;27.80;38.60
19180;DHT22;9722;48.754;8.868;2023-07-02T15:33:05;27.60;38.70
19180;DHT22;9722;48.754;8.868;2023-07-02T15:36:27;27.60;39.40
19180;DHT22;9722;48.754;8.868;2023-07-02T15:39:49;27.50;39.00
19180;DHT22;9722;48.754;8.868;2023-07-02T15:43:09;27.40;39.20
19180;DHT22;9722;48.754;8.868;2023-07-02T15:46:30;27.40;39.40
19180;DHT22;9722;48.754;8.868;2023-07-02T15:49:53;27.30;39.10
19180;DHT22;9722;48.754;8.868;2023-07-02T15:53:13;27.20;39.30
19180;DHT22;9722;48.754;8.868;2023-07-02T15:56:34;27.00;39.30
19180;DHT22;9722;48.754;8.868;2023-07-02T15:59:55;26.80;39.40
19180;DHT22;9722;48.754;8.868;2023-07-02T16:03:15;26.70;39.80
19180;DHT22;9722;48.754;8.868;2023-07-02T16:06:36;26.70;39.90
19180;DHT22;9722;48.754;8.868;2023-07-02T16:09:58;26.60;40.20
19180;DHT22;9722;48.754;8.868;2023-07-02T16:13:19;26.40;40.60
19180;DHT22;9722;48.754;8.868;2023-07-02T16:16:41;26.20;40.90
19180;DHT22;9722;48.754;8.868;2023-07-02T16:20:02;26.10;40.80
19180;DHT22;9722;48.754;8.868;2023-07-02T16:23:22;26.10;40.90
19180;DHT22;9722;48.754;8.868;2023-07-02T16:26:43;26.10;40.90
19180;DHT22;9722;48.754;8.868;2023-07-02T16:30:04;26.20;40.90
19180;DHT22;9722;48.754;8.868;2023-07-02T16:33:25;26.20;40.60
19180;DHT22;9722;48.754;8.868;2023-07-02T16:36:46;26.20;40.90
19180;DHT22;9722;48.754;8.868;2023-07-02T16:40:07;26.30;41.00
19180;DHT22;9722;48.754;8.868;2023-07-02T16:43:28;26.20;40.90
19180;DHT22;9722;48.754;8.868;2023-07-02T16:46:51;26.20;40.90
19180;DHT22;9722;48.754;8.868;2023-07-02T16:50:11;26.20;40.90
19180;DHT22;9722;48.754;8.868;2023-07-02T16:53:33;26.20;41.20
19180;DHT22;9722;48.754;8.868;2023-07-02T16:56:56;26.20;41.40
19180;DHT22;9722;48.754;8.868;2023-07-02T17:00:17;26.00;41.60
19180;DHT22;9722;48.754;8.868;2023-07-02T17:03:37;25.80;41.60
19180;DHT22;9722;48.754;8.868;2023-07-02T17:06:59;25.60;42.00
19180;DHT22;9722;48.754;8.868;2023-07-02T17:10:20;25.50;42.10
19180;DHT22;9722;48.754;8.868;2023-07-02T17:13:40;25.40;42.40
19180;DHT22;9722;48.754;8.868;2023-07-02T17:17:03;25.40;42.80
19180;DHT22;9722;48.754;8.868;2023-07-02T17:20:24;25.20;43.30
19180;DHT22;9722;48.754;8.868;2023-07-02T17:23:44;25.10;43.40
19180;DHT22;9722;48.754;8.868;2023-07-02T17:27:05;25.00;43.60
19180;DHT22;9722;48.754;8.868;2023-07-02T17:30:26;24.90;43.80
19180;DHT22;9722;48.754;8.868;2023-07-02T17:33:46;24.90;43.90
19180;DHT22;9722;48.754;8.868;2023-07-02T17:37:08;25.00;44.20
19180;DHT22;9722;48.754;8.868;2023-07-02T17:40:29;25.00;44.10
19180;DHT22;9722;48.754;8.868;2023-07-02T17:43:52;25.00;44.00
19180;DHT22;9722;48.754;8.868;2023-07-02T17:47:17;25.00;44.00
19180;DHT22;9722;48.754;8.868;2023-07-02T17:50:37;25.00;43.80
19180;DHT22;9722;48.754;8.868;2023-07-02T17:53:58;24.90;43.60
19180;DHT22;9722;48.754;8.868;2023-07-02T17:57:18;24.80;43.80
19180;DHT22;9722;48.754;8.868;2023-07-02T18:00:39;24.70;43.90
19180;DHT22;9722;48.754;8.868;2023-07-02T18:03:59;24.60;44.60
19180;DHT22;9722;48.754;8.868;2023-07-02T18:07:21;24.60;44.30
19180;DHT22;9722;48.754;8.868;2023-07-02T18:10:41;24.50;44.40
19180;DHT22;9722;48.754;8.868;2023-07-02T18:14:06;24.40;44.50
19180;DHT22;9722;48.754;8.868;2023-07-02T18:17:27;24.30;44.40
19180;DHT22;9722;48.754;8.868;2023-07-02T18:20:47;24.20;44.60
19180;DHT22;9722;48.754;8.868;2023-07-02T18:24:09;24.00;44.50
19180;DHT22;9722;48.754;8.868;2023-07-02T18:27:30;23.90;44.80
19180;DHT22;9722;48.754;8.868;2023-07-02T18:30:50;23.70;45.20
19180;DHT22;9722;48.754;8.868;2023-07-02T18:34:11;23.60;45.30
19180;DHT22;9722;48.754;8.868;2023-07-02T18:37:31;23.40;45.50
19180;DHT22;9722;48.754;8.868;2023-07-02T18:41:04;23.30;45.70
19180;DHT22;9722;48.754;8.868;2023-07-02T18:44:27;23.20;46.10
19180;DHT22;9722;48.754;8.868;2023-07-02T18:47:53;23.00;46.30
19180;DHT22;9722;48.754;8.868;2023-07-02T18:51:14;22.90;46.50
19180;DHT22;9722;48.754;8.868;2023-07-02T18:54:35;22.70;46.60
19180;DHT22;9722;48.754;8.868;2023-07-02T18:57:56;22.60;46.90
19180;DHT22;9722;48.754;8.868;2023-07-02T19:01:17;22.40;47.20
19180;DHT22;9722;48.754;8.868;2023-07-02T19:04:38;22.10;47.40
19180;DHT22;9722;48.754;8.868;2023-07-02T19:07:58;22.00;47.80
19180;DHT22;9722;48.754;8.868;2023-07-02T19:11:19;21.80;47.70
19180;DHT22;9722;48.754;8.868;2023-07-02T19:14:39;21.60;48.10
19180;DHT22;9722;48.754;8.868;2023-07-02T19:18:00;21.40;48.50
19180;DHT22;9722;48.754;8.868;2023-07-02T19:21:22;21.20;48.80
19180;DHT22;9722;48.754;8.868;2023-07-02T19:24:43;21.10;49.30
19180;DHT22;9722;48.754;8.868;2023-07-02T19:28:04;20.90;49.60
19180;DHT22;9722;48.754;8.868;2023-07-02T19:31:24;20.80;50.10
19180;DHT22;9722;48.754;8.868;2023-07-02T19:34:45;20.60;50.30
19180;DHT22;9722;48.754;8.868;2023-07-02T19:38:07;20.40;50.50
19180;DHT22;9722;48.754;8.868;2023-07-02T19:41:28;20.30;50.80
19180;DHT22;9722;48.754;8.868;2023-07-02T19:44:56;20.20;51.10
19180;DHT22;9722;48.754;8.868;2023-07-02T19:48:16;20.00;51.30
19180;DHT22;9722;48.754;8.868;2023-07-02T19:51:38;19.90;51.60
19180;DHT22;9722;48.754;8.868;2023-07-02T19:55:03;19.80;51.80
19180;DHT22;9722;48.754;8.868;2023-07-02T19:58:23;19.70;52.10
19180;DHT22;9722;48.754;8.868;2023-07-02T20:01:44;19.70;52.40
19180;DHT22;9722;48.754;8.868;2023-07-02T20:05:05;19.50;52.50
19180;DHT22;9722;48.754;8.868;2023-07-02T20:08:26;19.50;52.70
19180;DHT22;9722;48.754;8.868;2023-07-02T20:11:46;19.40;53.00
19180;DHT22;9722;48.754;8.868;2023-07-02T20:15:07;19.30;53.10
19180;DHT22;9722;48.754;8.868;2023-07-02T20:18:28;19.20;53.20
19180;DHT22;9722;48.754;8.868;2023-07-02T20:21:49;19.20;53.30
19180;DHT22;9722;48.754;8.868;2023-07-02T20:25:15;19.10;53.40
19180;DHT22;9722;48.754;8.868;2023-07-02T20:28:35;19.00;53.50
19180;DHT22;9722;48.754;8.868;2023-07-02T20:31:56;19.00;53.60
19180;DHT22;9722;48.754;8.868;2023-07-02T20:35:16;18.90;53.70
19180;DHT22;9722;48.754;8.868;2023-07-02T20:38:39;18.80;53.80
19180;DHT22;9722;48.754;8.868;2023-07-02T20:42:02;18.80;54.00
19180;DHT22;9722;48.754;8.868;2023-07-02T20:45:24;18.80;54.10
19180;DHT22;9722;48.754;8.868;2023-07-02T20:48:50;18.70;54.30
19180;DHT22;9722;48.754;8.868;2023-07-02T20:52:11;18.60;54.50
19180;DHT22;9722;48.754;8.868;2023-07-02T20:55:32;18.50;54.60
19180;DHT22;9722;48.754;8.868;2023-07-02T20:58:52;18.40;54.80
19180;DHT22;9722;48.754;8.868;2023-07-02T21:02:13;18.30;55.00
19180;DHT22;9722;48.754;8.868;2023-07-02T21:05:36;18.20;55.40
19180;DHT22;9722;48.754;8.868;2023-07-02T21:08:56;18.10;55.80
19180;DHT22;9722;48.754;8.868;2023-07-02T21:12:17;18.00;56.10
19180;DHT22;9722;48.754;8.868;2023-07-02T21:15:37;18.00;56.60
19180;DHT22;9722;48.754;8.868;2023-07-02T21:18:59;17.90;56.90
19180;DHT22;9722;48.754;8.868;2023-07-02T21:22:20;17.80;57.30
19180;DHT22;9722;48.754;8.868;2023-07-02T21:25:40;17.70;57.60
19180;DHT22;9722;48.754;8.868;2023-07-02T21:29:01;17.60;57.90